Pine Bluff, Arkansas
Current Conditions -  °F | °C
As of 5:53 PM on Saturday 22 Nov 2014 (Local Time) from KPBF Reporting Station
Overcast Overcast  
Wind Chill: 63°   Ceiling: 3400
Heat Index: 63°   Visibility: 10mi
Dew Point: 53°   Wind: 8mph
Humidity: 70%   Direction: 150°SSE
Pressure: 30"   Gusts: NA
Location:  34.22°N, 92°W
Report Text: KPBF 222353Z AUTO 15007KT 10SM OVC034 17/12 A3000 RMK AO2 SLP158 T01720117 10211 20172 55004
Loading
Personal Weather Stations






























Interactive Weather Map New forecast layout! Learn more

10-Day Weather Forecast

Advertisements
Track Severe Weather on mobile